createdAt,value
2022-12-27T00:00:24.843Z,7.68
2022-12-27T00:01:29.624Z,4.00
2022-12-27T00:02:31.599Z,4.03
2022-12-27T00:03:36.150Z,6.55
2022-12-27T00:04:38.129Z,3.70
2022-12-27T00:05:45.523Z,7.65
2022-12-27T00:06:47.720Z,11.10
2022-12-27T00:07:52.515Z,7.85
2022-12-27T00:08:55.290Z,7.15
2022-12-27T00:09:59.913Z,4.53
2022-12-27T00:11:05.720Z,11.40
2022-12-27T00:12:10.992Z,5.50
2022-12-27T00:13:12.924Z,7.53
2022-12-27T00:14:17.843Z,7.55
2022-12-27T00:15:20.235Z,6.20
2022-12-27T00:16:27.432Z,5.65
2022-12-27T00:17:29.435Z,6.00
2022-12-27T00:18:33.945Z,5.13
2022-12-27T00:19:35.899Z,5.88
2022-12-27T00:20:40.367Z,5.60
2022-12-27T00:21:42.356Z,7.05
2022-12-27T00:22:47.165Z,6.70
2022-12-27T00:23:55.563Z,4.07
2022-12-27T00:25:00.120Z,10.15
2022-12-27T00:26:02.498Z,4.80
2022-12-27T00:27:07.138Z,5.53
2022-12-27T00:28:09.049Z,7.25
2022-12-27T00:29:13.778Z,2.75
2022-12-27T00:30:15.747Z,5.47
2022-12-27T00:31:21.670Z,7.03
2022-12-27T00:32:29.002Z,9.55
2022-12-27T00:33:33.081Z,3.10
2022-12-27T00:34:37.790Z,4.47
2022-12-27T00:35:39.934Z,8.63
2022-12-27T00:36:44.441Z,4.88
2022-12-27T00:37:46.342Z,8.90
2022-12-27T00:38:51.922Z,8.38
2022-12-27T00:39:53.896Z,13.43
2022-12-27T00:40:58.501Z,8.57
2022-12-27T00:42:00.477Z,5.47
2022-12-27T00:43:05.038Z,7.18
2022-12-27T00:44:07.070Z,7.93
2022-12-27T00:45:13.393Z,7.82
2022-12-27T00:46:16.166Z,9.98
2022-12-27T00:47:20.689Z,6.38
2022-12-27T00:48:25.655Z,3.20
2022-12-27T00:49:30.177Z,7.85
2022-12-27T00:50:32.143Z,4.18
2022-12-27T00:51:36.650Z,4.82
2022-12-27T00:52:38.595Z,6.40
2022-12-27T00:53:43.236Z,8.73
2022-12-27T00:54:45.293Z,4.63
2022-12-27T00:55:49.790Z,6.35
2022-12-27T00:56:51.760Z,3.90
2022-12-27T00:57:57.044Z,10.65
2022-12-27T00:59:00.681Z,3.70
2022-12-27T01:00:10.178Z,5.68
2022-12-27T01:01:15.464Z,5.50
2022-12-27T01:02:20.079Z,4.53
2022-12-27T01:03:24.646Z,4.63
2022-12-27T01:04:29.172Z,3.20
2022-12-27T01:05:31.092Z,2.38
2022-12-27T01:06:37.234Z,11.15
2022-12-27T01:07:39.148Z,3.28
2022-12-27T01:08:43.815Z,3.80
2022-12-27T01:09:45.858Z,3.28
2022-12-27T01:10:50.435Z,2.58
2022-12-27T01:11:52.365Z,2.17
2022-12-27T01:12:57.116Z,5.65
2022-12-27T01:14:02.691Z,2.65
2022-12-27T01:15:07.969Z,4.10
2022-12-27T01:16:12.024Z,7.10
2022-12-27T01:17:16.567Z,2.70
2022-12-27T01:18:18.517Z,8.95
2022-12-27T01:19:25.691Z,4.47
2022-12-27T01:20:27.625Z,2.63
2022-12-27T01:21:31.060Z,4.85
2022-12-27T01:22:35.648Z,2.30
2022-12-27T01:23:38.894Z,2.63
2022-12-27T01:24:43.393Z,2.63
2022-12-27T01:25:45.395Z,2.65
2022-12-27T01:26:49.941Z,9.82
2022-12-27T01:27:51.910Z,2.35
2022-12-27T01:28:57.201Z,2.33
2022-12-27T01:29:59.210Z,1.70
2022-12-27T01:31:08.535Z,2.33
2022-12-27T01:32:10.571Z,6.38
2022-12-27T01:33:15.118Z,2.58
2022-12-27T01:34:18.068Z,2.88
2022-12-27T01:35:25.291Z,2.38
2022-12-27T01:36:29.643Z,2.25
2022-12-27T01:37:34.152Z,4.70
2022-12-27T01:38:36.120Z,2.25
2022-12-27T01:39:40.704Z,8.38
2022-12-27T01:40:42.693Z,3.58
2022-12-27T01:42:00.775Z,3.53
2022-12-27T01:43:05.334Z,3.78
2022-12-27T01:44:37.344Z,4.07
2022-12-27T01:45:42.026Z,5.43
2022-12-27T01:46:44.124Z,5.72
2022-12-27T01:47:53.885Z,4.45
2022-12-27T01:48:56.247Z,2.30
2022-12-27T01:50:08.193Z,3.33
2022-12-27T01:51:12.933Z,5.30
2022-12-27T01:52:18.049Z,2.97
2022-12-27T01:53:25.598Z,4.13
2022-12-27T01:54:27.573Z,6.13
2022-12-27T01:55:38.124Z,6.43
2022-12-27T01:56:40.144Z,5.10
2022-12-27T01:57:45.057Z,1.30
2022-12-27T01:58:54.516Z,4.30
2022-12-27T01:59:56.472Z,4.93
2022-12-27T02:01:01.835Z,5.82
2022-12-27T02:02:05.469Z,3.78
2022-12-27T02:03:10.399Z,4.85
2022-12-27T02:04:15.860Z,3.53
2022-12-27T02:05:23.382Z,7.45
2022-12-27T02:06:29.889Z,3.38
2022-12-27T02:07:43.802Z,6.47
2022-12-27T02:08:56.957Z,1.85
2022-12-27T02:10:00.963Z,5.50
2022-12-27T02:11:06.434Z,3.28
2022-12-27T02:12:10.735Z,3.58
2022-12-27T02:13:16.892Z,5.43
2022-12-27T02:14:26.199Z,3.47
2022-12-27T02:15:32.289Z,5.00
2022-12-27T02:16:34.277Z,0.90
2022-12-27T02:17:38.872Z,2.55
2022-12-27T02:18:41.202Z,3.78
2022-12-27T02:19:53.681Z,3.38
2022-12-27T02:21:27.061Z,4.75
2022-12-27T02:23:17.335Z,4.03
2022-12-27T02:24:43.958Z,7.10
2022-12-27T02:26:13.335Z,7.78
2022-12-27T02:27:31.763Z,3.50
2022-12-27T02:29:03.965Z,2.85
2022-12-27T02:30:13.024Z,3.28
2022-12-27T02:31:22.025Z,2.50
2022-12-27T02:32:33.312Z,5.55
2022-12-27T02:33:39.073Z,4.13
2022-12-27T02:34:54.769Z,5.35
2022-12-27T02:36:02.244Z,2.33
2022-12-27T02:37:12.847Z,5.05
2022-12-27T02:38:20.673Z,7.15
2022-12-27T02:39:27.374Z,5.80
2022-12-27T02:40:46.522Z,7.43
2022-12-27T02:43:21.748Z,5.47
2022-12-27T02:44:41.776Z,5.47
2022-12-27T02:46:07.155Z,7.38
2022-12-27T02:47:34.108Z,2.40
2022-12-27T02:48:51.185Z,4.90
2022-12-27T02:50:13.877Z,5.20
2022-12-27T02:51:47.010Z,2.30
2022-12-27T02:53:09.737Z,4.80
2022-12-27T02:54:28.709Z,2.38
2022-12-27T02:56:06.264Z,3.47
2022-12-27T02:57:22.879Z,5.43
2022-12-27T02:58:32.084Z,4.90
2022-12-27T03:00:07.143Z,4.03
2022-12-27T03:01:33.550Z,2.83
2022-12-27T03:03:01.602Z,3.15
2022-12-27T03:04:26.527Z,2.97
2022-12-27T03:05:45.443Z,4.70
2022-12-27T03:07:11.082Z,2.17
2022-12-27T03:08:20.908Z,9.18
2022-12-27T03:10:10.394Z,7.45
2022-12-27T03:11:27.563Z,2.40
2022-12-27T03:12:58.638Z,3.70
2022-12-27T03:14:31.345Z,5.97
2022-12-27T03:16:00.527Z,2.80
2022-12-27T03:17:07.642Z,2.50
2022-12-27T03:18:15.363Z,6.40
2022-12-27T03:19:47.770Z,7.82
2022-12-27T03:21:05.290Z,2.95
2022-12-27T03:22:24.719Z,14.77
2022-12-27T03:23:43.569Z,8.18
2022-12-27T03:25:00.754Z,4.07
2022-12-27T03:26:08.365Z,7.82
2022-12-27T03:27:18.748Z,5.93
2022-12-27T03:28:44.422Z,7.15
2022-12-27T03:30:14.835Z,7.72
2022-12-27T03:31:39.268Z,1.65
2022-12-27T03:33:01.140Z,4.80
2022-12-27T03:34:29.888Z,3.53
2022-12-27T03:35:35.606Z,6.18
2022-12-27T03:36:52.703Z,4.95
2022-12-27T03:38:05.687Z,7.38
2022-12-27T03:39:22.209Z,4.05
2022-12-27T03:40:34.688Z,7.97
2022-12-27T03:41:55.592Z,8.82
2022-12-27T03:43:14.784Z,11.02
2022-12-27T03:44:26.499Z,4.70
2022-12-27T03:45:49.075Z,4.82
2022-12-27T03:46:59.470Z,9.90
2022-12-27T03:48:04.931Z,9.02
2022-12-27T03:49:20.313Z,14.35
2022-12-27T03:50:31.495Z,5.15
2022-12-27T03:51:38.313Z,6.25
2022-12-27T03:52:48.515Z,9.90
2022-12-27T03:53:53.891Z,6.53
2022-12-27T03:54:59.165Z,11.38
2022-12-27T03:56:01.192Z,11.15
2022-12-27T03:57:09.025Z,7.80
2022-12-27T03:58:11.186Z,6.25
2022-12-27T03:59:15.902Z,10.40
2022-12-27T04:00:18.414Z,14.70
2022-12-27T04:01:23.042Z,5.00
2022-12-27T04:02:27.851Z,7.70
2022-12-27T04:03:32.818Z,7.18
2022-12-27T04:04:35.159Z,9.65
2022-12-27T04:05:39.660Z,8.50
2022-12-27T04:06:41.590Z,7.07
2022-12-27T04:07:58.617Z,7.57
2022-12-27T04:09:15.670Z,21.48
2022-12-27T04:10:32.820Z,11.05
2022-12-27T04:11:49.864Z,9.38
2022-12-27T04:13:06.881Z,11.50
2022-12-27T04:14:23.892Z,11.88
2022-12-27T04:15:40.919Z,5.78
2022-12-27T04:16:58.041Z,7.78
2022-12-27T04:18:17.803Z,8.75
2022-12-27T04:19:34.844Z,8.45
2022-12-27T04:20:51.831Z,8.00
2022-12-27T04:22:08.884Z,6.43
2022-12-27T04:23:26.065Z,7.95
2022-12-27T04:24:43.106Z,7.43
2022-12-27T04:26:00.609Z,8.13
2022-12-27T04:27:17.604Z,6.10
2022-12-27T04:28:34.662Z,7.90
2022-12-27T04:29:51.677Z,8.85
2022-12-27T04:31:08.686Z,9.57
2022-12-27T04:32:25.673Z,6.20
2022-12-27T04:33:45.277Z,12.70
2022-12-27T04:34:49.798Z,15.18
2022-12-27T04:35:51.738Z,9.15
2022-12-27T04:36:56.289Z,14.55
2022-12-27T04:37:58.297Z,14.57
2022-12-27T04:39:02.846Z,11.93
2022-12-27T04:40:20.980Z,8.60
2022-12-27T04:41:38.009Z,7.47
2022-12-27T04:42:54.995Z,7.50
2022-12-27T04:44:12.022Z,8.45
2022-12-27T04:45:29.301Z,13.93
2022-12-27T04:46:46.443Z,14.70
2022-12-27T04:48:03.503Z,4.07
2022-12-27T04:49:26.746Z,8.77
2022-12-27T04:50:45.819Z,8.73
2022-12-27T04:52:11.279Z,12.13
2022-12-27T04:53:30.156Z,8.20
2022-12-27T04:54:59.029Z,9.25
2022-12-27T04:56:04.033Z,11.13
2022-12-27T04:57:06.035Z,12.73
2022-12-27T04:58:10.575Z,7.40
2022-12-27T04:59:27.558Z,6.32
2022-12-27T05:00:46.360Z,12.13
2022-12-27T05:02:03.631Z,9.85
2022-12-27T05:03:11.816Z,8.52
2022-12-27T05:04:17.004Z,5.53
2022-12-27T05:05:21.899Z,5.80
2022-12-27T05:06:23.839Z,4.25
2022-12-27T05:07:41.063Z,9.02
2022-12-27T05:08:58.856Z,6.45
2022-12-27T05:10:18.661Z,5.95
2022-12-27T05:11:35.724Z,8.23
2022-12-27T05:12:52.915Z,9.93
2022-12-27T05:14:03.599Z,6.40
2022-12-27T05:15:06.521Z,7.07
2022-12-27T05:16:11.132Z,7.20
2022-12-27T05:17:13.602Z,4.97
2022-12-27T05:18:18.119Z,7.50
2022-12-27T05:19:25.207Z,6.65
2022-12-27T05:20:27.139Z,5.35
2022-12-27T05:21:31.751Z,10.75
2022-12-27T05:22:48.761Z,9.63
2022-12-27T05:24:06.056Z,5.72
2022-12-27T05:25:26.293Z,6.78
2022-12-27T05:26:32.872Z,8.23
2022-12-27T05:27:34.822Z,7.60
2022-12-27T05:28:39.384Z,7.35
2022-12-27T05:29:41.331Z,5.90
2022-12-27T05:30:47.006Z,3.97
2022-12-27T05:31:51.594Z,8.63
2022-12-27T05:32:54.578Z,3.38
2022-12-27T05:33:59.640Z,3.83
2022-12-27T05:35:04.833Z,9.40
2022-12-27T05:36:11.075Z,9.02
2022-12-27T05:37:13.109Z,6.50
2022-12-27T05:38:17.746Z,6.53
2022-12-27T05:39:19.718Z,4.40
2022-12-27T05:40:24.390Z,4.10
2022-12-27T05:41:28.959Z,5.53
2022-12-27T05:42:31.877Z,5.75
2022-12-27T05:43:37.138Z,7.13
2022-12-27T05:44:39.128Z,9.57
2022-12-27T05:45:43.666Z,9.90
2022-12-27T05:46:45.682Z,8.43
2022-12-27T05:47:50.260Z,5.47
2022-12-27T05:48:52.203Z,9.90
2022-12-27T05:49:56.694Z,2.95
2022-12-27T05:51:05.055Z,6.40
2022-12-27T05:52:09.609Z,8.32
2022-12-27T05:53:12.029Z,5.32
2022-12-27T05:54:16.668Z,7.85
2022-12-27T05:55:18.612Z,7.28
2022-12-27T05:56:24.071Z,6.32
2022-12-27T05:57:26.178Z,5.32
2022-12-27T05:58:30.975Z,7.53
2022-12-27T05:59:32.955Z,13.60
2022-12-27T06:00:37.533Z,9.05
2022-12-27T06:01:39.541Z,4.60
2022-12-27T06:02:44.930Z,5.30
2022-12-27T06:03:47.245Z,8.85
2022-12-27T06:04:51.795Z,10.75
2022-12-27T06:06:05.125Z,6.88
2022-12-27T06:07:07.093Z,8.32
2022-12-27T06:08:12.405Z,9.23
2022-12-27T06:09:14.478Z,8.35
2022-12-27T06:10:19.043Z,6.63
2022-12-27T06:11:21.067Z,6.30
2022-12-27T06:12:25.585Z,5.00
2022-12-27T06:13:27.504Z,6.68
2022-12-27T06:14:32.033Z,12.23
2022-12-27T06:15:34.144Z,6.28
2022-12-27T06:16:38.982Z,11.70
2022-12-27T06:17:41.246Z,3.35
2022-12-27T06:18:46.250Z,8.55
2022-12-27T06:19:52.469Z,8.55
2022-12-27T06:21:07.254Z,15.88
2022-12-27T06:22:09.209Z,3.63
2022-12-27T06:23:13.725Z,4.47
2022-12-27T06:24:16.753Z,6.80
2022-12-27T06:25:21.567Z,3.28
2022-12-27T06:26:26.596Z,10.07
2022-12-27T06:27:31.656Z,7.57
2022-12-27T06:28:33.744Z,5.65
2022-12-27T06:29:38.399Z,6.88
2022-12-27T06:30:40.334Z,8.05
2022-12-27T06:31:44.965Z,9.45
2022-12-27T06:32:46.991Z,6.88
2022-12-27T06:33:53.313Z,4.85
2022-12-27T06:34:55.271Z,8.32
2022-12-27T06:36:00.412Z,11.90
2022-12-27T06:37:04.965Z,8.82
2022-12-27T06:38:09.500Z,9.52
2022-12-27T06:39:11.479Z,5.13
2022-12-27T06:40:16.012Z,7.72
2022-12-27T06:41:19.225Z,8.23
2022-12-27T06:42:23.741Z,6.22
2022-12-27T06:43:25.735Z,8.60
2022-12-27T06:44:30.355Z,6.18
2022-12-27T06:45:32.300Z,11.18
2022-12-27T06:46:36.886Z,6.65
2022-12-27T06:47:38.886Z,9.48
2022-12-27T06:48:43.491Z,10.10
2022-12-27T06:49:45.446Z,14.68
2022-12-27T06:50:49.947Z,11.88
2022-12-27T06:51:59.067Z,8.45
2022-12-27T06:53:06.721Z,10.30
2022-12-27T06:54:08.696Z,8.05
2022-12-27T06:55:13.181Z,9.90
2022-12-27T06:56:17.774Z,9.68
2022-12-27T06:57:22.250Z,6.20
2022-12-27T06:58:24.242Z,8.35
2022-12-27T06:59:28.743Z,8.80
2022-12-27T07:00:30.727Z,4.25
2022-12-27T07:01:35.371Z,10.02
2022-12-27T07:02:38.384Z,11.55
2022-12-27T07:03:43.686Z,5.63
2022-12-27T07:04:45.697Z,6.28
2022-12-27T07:05:50.197Z,8.93
2022-12-27T07:06:52.148Z,6.68
2022-12-27T07:07:56.627Z,9.18
2022-12-27T07:09:01.485Z,7.90
2022-12-27T07:10:06.296Z,10.98
2022-12-27T07:11:11.010Z,8.48
2022-12-27T07:12:15.501Z,6.95
2022-12-27T07:13:17.425Z,9.48
2022-12-27T07:14:21.975Z,7.88
2022-12-27T07:15:24.357Z,6.97
2022-12-27T07:16:31.406Z,6.20
2022-12-27T07:17:35.184Z,9.13
2022-12-27T07:18:40.213Z,9.75
2022-12-27T07:19:42.226Z,6.25
2022-12-27T07:20:46.724Z,14.55
2022-12-27T07:21:51.228Z,9.13
2022-12-27T07:22:53.141Z,4.57
2022-12-27T07:23:58.420Z,9.05
2022-12-27T07:25:02.935Z,5.90
2022-12-27T07:26:08.690Z,5.53
2022-12-27T07:27:10.615Z,6.13
2022-12-27T07:28:15.110Z,7.97
2022-12-27T07:29:17.253Z,6.47
2022-12-27T07:30:21.805Z,10.75
2022-12-27T07:31:26.716Z,20.30
2022-12-27T07:32:31.332Z,8.15
2022-12-27T07:33:33.383Z,10.70
2022-12-27T07:34:37.887Z,15.68
2022-12-27T07:35:44.966Z,8.95
2022-12-27T07:36:49.807Z,6.50
2022-12-27T07:37:52.077Z,10.20
2022-12-27T07:38:57.550Z,24.80
2022-12-27T07:39:59.448Z,11.88
2022-12-27T07:41:06.715Z,6.28
2022-12-27T07:42:08.895Z,9.50
2022-12-27T07:43:13.440Z,16.52
2022-12-27T07:44:15.585Z,18.60
2022-12-27T07:45:20.154Z,12.38
2022-12-27T07:46:23.993Z,19.60
2022-12-27T07:47:28.519Z,30.25
2022-12-27T07:48:30.398Z,23.67
2022-12-27T07:49:34.916Z,30.25
2022-12-27T07:50:36.865Z,31.77
2022-12-27T07:51:41.406Z,29.70
2022-12-27T07:52:43.316Z,20.20
2022-12-27T07:53:50.360Z,22.05
2022-12-27T07:54:52.280Z,23.27
2022-12-27T07:55:56.948Z,20.98
2022-12-27T07:57:05.039Z,24.92
2022-12-27T07:58:06.972Z,40.53
2022-12-27T07:59:14.650Z,22.90
2022-12-27T08:00:17.288Z,14.10
2022-12-27T08:01:24.109Z,18.73
2022-12-27T08:02:26.184Z,23.05
2022-12-27T08:03:30.816Z,29.45
2022-12-27T08:04:37.224Z,15.35
2022-12-27T08:05:47.319Z,18.15
2022-12-27T08:06:49.723Z,9.48
2022-12-27T08:07:54.293Z,12.32
2022-12-27T08:09:00.891Z,16.17
2022-12-27T08:10:02.814Z,14.73
2022-12-27T08:11:07.734Z,14.00
2022-12-27T08:12:13.597Z,20.05
2022-12-27T08:13:18.131Z,25.63
2022-12-27T08:14:20.269Z,14.45
2022-12-27T08:15:25.395Z,13.02
2022-12-27T08:16:30.995Z,17.45
2022-12-27T08:17:33.291Z,12.18
2022-12-27T08:18:38.087Z,4.88
2022-12-27T08:19:40.124Z,9.20
2022-12-27T08:20:45.080Z,8.35
2022-12-27T08:21:47.342Z,9.38
2022-12-27T08:22:52.320Z,8.02
2022-12-27T08:23:54.449Z,4.63
2022-12-27T08:24:59.410Z,6.97
2022-12-27T08:26:01.589Z,8.02
2022-12-27T08:27:06.759Z,5.45
2022-12-27T08:28:13.412Z,8.02
2022-12-27T08:29:18.253Z,5.68
2022-12-27T08:30:20.852Z,6.90
2022-12-27T08:31:25.922Z,7.60
2022-12-27T08:32:28.225Z,7.95
2022-12-27T08:33:33.370Z,13.43
2022-12-27T08:34:35.625Z,10.18
2022-12-27T08:35:52.599Z,5.53
2022-12-27T08:36:59.031Z,9.50
2022-12-27T08:38:01.665Z,8.18
2022-12-27T08:39:07.618Z,5.57
2022-12-27T08:40:10.830Z,5.32
2022-12-27T08:41:15.575Z,5.60
2022-12-27T08:42:17.768Z,4.72
2022-12-27T08:43:25.557Z,7.65
2022-12-27T08:44:30.232Z,17.60
2022-12-27T08:45:32.282Z,5.97
2022-12-27T08:46:37.207Z,26.77
2022-12-27T08:47:39.612Z,56.20
2022-12-27T08:48:44.515Z,3.47
2022-12-27T08:49:46.594Z,1.75
2022-12-27T08:50:51.440Z,27.73
2022-12-27T08:51:53.493Z,4.25
2022-12-27T08:53:00.443Z,6.68
2022-12-27T08:54:02.611Z,3.08
2022-12-27T08:55:08.410Z,3.70
2022-12-27T08:56:10.540Z,4.78
2022-12-27T08:57:15.324Z,5.43
2022-12-27T08:58:17.345Z,1.40
2022-12-27T08:59:24.733Z,3.83
2022-12-27T09:00:28.411Z,2.88
2022-12-27T09:01:33.405Z,20.08
2022-12-27T09:02:36.173Z,3.10
2022-12-27T09:03:41.402Z,5.25
2022-12-27T09:04:43.757Z,3.00
2022-12-27T09:05:50.034Z,7.03
2022-12-27T09:06:54.965Z,3.63
2022-12-27T09:07:58.642Z,3.38
2022-12-27T09:09:03.373Z,51.45
2022-12-27T09:10:06.970Z,3.25
2022-12-27T09:11:14.270Z,5.40
2022-12-27T09:12:16.335Z,3.08
2022-12-27T09:13:21.134Z,2.25
2022-12-27T09:14:29.238Z,4.13
2022-12-27T09:15:31.423Z,3.78
2022-12-27T09:16:37.049Z,6.57
2022-12-27T09:17:39.330Z,2.88
2022-12-27T09:18:45.525Z,3.17
2022-12-27T09:19:50.162Z,4.07
2022-12-27T09:20:52.589Z,3.88
2022-12-27T09:21:57.387Z,8.80
2022-12-27T09:24:42.784Z,4.90
2022-12-27T09:25:45.124Z,2.03
2022-12-27T09:26:49.864Z,10.63
2022-12-27T09:27:52.117Z,4.40
2022-12-27T09:28:57.767Z,11.48
2022-12-27T09:30:02.702Z,2.78
2022-12-27T09:31:08.109Z,3.90
2022-12-27T09:32:10.444Z,4.93
2022-12-27T09:33:15.460Z,9.75
2022-12-27T09:34:17.583Z,5.30
2022-12-27T09:35:22.475Z,5.32
2022-12-27T09:36:27.370Z,4.53
2022-12-27T09:37:32.230Z,4.45
2022-12-27T09:38:37.743Z,3.10
2022-12-27T09:39:39.861Z,5.07
2022-12-27T09:40:56.121Z,3.40
2022-12-27T09:43:44.457Z,5.55
2022-12-27T09:44:51.839Z,3.13
2022-12-27T09:46:00.610Z,3.03
2022-12-27T09:47:11.253Z,5.65
2022-12-27T09:48:20.559Z,5.22
2022-12-27T09:49:30.344Z,4.05
2022-12-27T09:50:38.584Z,8.98
2022-12-27T09:51:48.850Z,5.63
2022-12-27T09:53:01.427Z,4.25
2022-12-27T09:54:14.960Z,7.88
2022-12-27T09:55:21.111Z,3.88
2022-12-27T09:56:54.004Z,5.10
2022-12-27T09:58:06.252Z,3.60
2022-12-27T09:59:16.329Z,5.32
2022-12-27T10:00:34.820Z,4.05
2022-12-27T10:01:44.851Z,4.60
2022-12-27T10:02:48.061Z,2.67
2022-12-27T10:03:53.300Z,2.90
2022-12-27T10:05:19.815Z,2.95
2022-12-27T10:06:49.924Z,2.17
2022-12-27T10:08:13.085Z,6.28
2022-12-27T10:09:34.814Z,4.25
2022-12-27T10:10:50.310Z,8.45
2022-12-27T10:12:04.684Z,4.90
2022-12-27T10:13:16.831Z,5.55
2022-12-27T10:14:33.594Z,7.78
2022-12-27T10:15:43.999Z,5.47
2022-12-27T10:16:59.885Z,3.38
2022-12-27T10:18:17.161Z,2.92
2022-12-27T10:19:32.182Z,3.10
2022-12-27T10:20:54.906Z,6.10
2022-12-27T10:22:15.181Z,5.05
2022-12-27T10:23:21.104Z,5.35
2022-12-27T10:24:28.930Z,2.95
2022-12-27T10:25:31.635Z,6.03
2022-12-27T10:26:36.515Z,2.75
2022-12-27T10:27:41.011Z,4.28
2022-12-27T10:28:50.309Z,5.55
2022-12-27T10:29:55.746Z,4.63
2022-12-27T10:31:47.993Z,5.70
2022-12-27T10:32:55.438Z,7.47
2022-12-27T10:34:00.808Z,4.32
2022-12-27T10:35:04.455Z,6.07
2022-12-27T10:36:14.572Z,5.18
2022-12-27T10:37:16.652Z,11.02
2022-12-27T10:38:21.996Z,6.18
2022-12-27T10:39:32.325Z,4.85
2022-12-27T10:40:43.397Z,5.53
2022-12-27T10:42:00.439Z,4.05
2022-12-27T10:43:05.106Z,2.63
2022-12-27T10:44:13.475Z,4.90
2022-12-27T10:45:32.556Z,7.55
2022-12-27T10:46:37.410Z,5.47
2022-12-27T10:47:40.383Z,6.22
2022-12-27T10:49:22.654Z,4.55
2022-12-27T10:50:24.494Z,6.00
2022-12-27T10:51:31.633Z,10.05
2022-12-27T10:52:35.507Z,6.57
2022-12-27T10:53:42.721Z,6.82
2022-12-27T10:54:57.426Z,7.47
2022-12-27T10:56:10.935Z,6.75
2022-12-27T10:57:28.934Z,8.88
2022-12-27T10:58:38.813Z,3.55
2022-12-27T10:59:43.843Z,8.45
2022-12-27T11:00:53.672Z,2.50
2022-12-27T11:02:19.644Z,5.22
2022-12-27T11:03:21.884Z,2.95
2022-12-27T11:04:29.861Z,3.28
2022-12-27T11:05:34.023Z,3.65
2022-12-27T11:06:39.130Z,5.40
2022-12-27T11:07:44.210Z,4.70
2022-12-27T11:08:46.290Z,7.50
2022-12-27T11:09:51.493Z,6.55
2022-12-27T11:11:12.436Z,10.95
2022-12-27T11:12:24.021Z,16.88
2022-12-27T11:14:30.783Z,38.53
2022-12-27T11:15:38.633Z,26.98
2022-12-27T11:16:44.280Z,46.00
2022-12-27T11:17:48.387Z,50.47
2022-12-27T11:18:56.891Z,36.90
2022-12-27T11:20:09.173Z,40.28
2022-12-27T11:21:24.122Z,15.82
2022-12-27T11:22:32.373Z,20.40
2022-12-27T11:23:42.324Z,25.80
2022-12-27T11:24:49.825Z,17.65
2022-12-27T11:25:54.773Z,15.60
2022-12-27T11:27:01.924Z,6.95
2022-12-27T11:28:21.850Z,12.63
2022-12-27T11:29:30.959Z,8.98
2022-12-27T11:30:36.324Z,7.50
2022-12-27T11:31:46.727Z,19.15
2022-12-27T11:32:48.992Z,13.65
2022-12-27T11:33:55.931Z,21.00
2022-12-27T11:35:00.781Z,5.93
2022-12-27T11:36:07.511Z,10.23
2022-12-27T11:37:16.427Z,12.48
2022-12-27T11:38:24.670Z,15.32
2022-12-27T11:39:52.081Z,10.77
2022-12-27T11:41:04.737Z,10.77
2022-12-27T11:42:18.192Z,8.13
2022-12-27T11:43:25.565Z,11.75
2022-12-27T11:44:33.013Z,9.02
2022-12-27T11:45:40.805Z,25.65
2022-12-27T11:46:53.917Z,12.10
2022-12-27T11:48:06.104Z,8.30
2022-12-27T11:49:18.106Z,23.73
2022-12-27T11:50:42.731Z,20.27
2022-12-27T11:52:18.233Z,21.00
2022-12-27T11:53:47.748Z,17.15
2022-12-27T11:55:16.378Z,18.42
2022-12-27T11:56:26.501Z,8.38
2022-12-27T11:57:43.351Z,5.15
2022-12-27T11:59:10.542Z,2.28
2022-12-27T12:00:23.032Z,4.80
2022-12-27T12:01:44.492Z,6.13
2022-12-27T12:03:18.031Z,7.55
2022-12-27T12:05:04.875Z,7.72
2022-12-27T12:06:17.276Z,4.50
2022-12-27T12:07:43.061Z,8.00
2022-12-27T12:09:21.437Z,27.73
2022-12-27T12:10:36.188Z,17.40
2022-12-27T12:11:59.190Z,23.55
2022-12-27T12:13:24.110Z,14.55
2022-12-27T12:14:58.647Z,6.90
2022-12-27T12:16:23.871Z,7.10
2022-12-27T12:17:49.908Z,10.73
2022-12-27T12:19:16.004Z,10.88
2022-12-27T12:20:50.769Z,25.17
2022-12-27T12:22:13.156Z,3.20
2022-12-27T12:23:29.583Z,4.25
2022-12-27T12:25:06.948Z,8.15
2022-12-27T12:26:19.847Z,6.00
2022-12-27T12:27:42.523Z,4.95
2022-12-27T12:29:28.560Z,6.40
2022-12-27T12:30:48.340Z,30.52
2022-12-27T12:32:30.685Z,88.63
2022-12-27T12:33:51.265Z,115.35
2022-12-27T12:35:31.302Z,101.28
2022-12-27T12:36:52.961Z,65.43
2022-12-27T12:38:19.663Z,9.52
2022-12-27T12:39:37.187Z,5.05
2022-12-27T12:41:04.851Z,3.63
2022-12-27T12:42:23.421Z,34.78
2022-12-27T12:43:49.239Z,64.72
2022-12-27T12:45:22.676Z,33.80
2022-12-27T12:46:32.878Z,67.60
2022-12-27T12:47:58.211Z,25.17
2022-12-27T12:49:10.460Z,14.18
2022-12-27T12:50:31.885Z,14.88
2022-12-27T12:52:25.961Z,13.57
2022-12-27T12:53:47.733Z,5.82
2022-12-27T12:55:18.573Z,3.75
2022-12-27T12:56:43.494Z,1.90
2022-12-27T12:58:02.133Z,6.70
2022-12-27T12:59:36.887Z,8.60
2022-12-27T13:01:05.268Z,45.65
2022-12-27T13:02:40.007Z,18.13
2022-12-27T13:03:58.408Z,11.20
2022-12-27T13:05:14.019Z,12.45
2022-12-27T13:06:34.910Z,17.48
2022-12-27T13:07:53.628Z,17.30
2022-12-27T13:09:05.920Z,39.15
2022-12-27T13:10:34.379Z,57.17
2022-12-27T13:11:49.594Z,62.70
2022-12-27T13:12:58.617Z,58.28
2022-12-27T13:14:30.212Z,63.92
2022-12-27T13:15:48.303Z,87.07
2022-12-27T13:16:58.762Z,40.00
2022-12-27T13:18:14.891Z,37.38
2022-12-27T13:19:37.906Z,59.08
2022-12-27T13:21:06.453Z,65.65
2022-12-27T13:22:16.195Z,105.00
2022-12-27T13:23:33.585Z,85.35
2022-12-27T13:24:50.615Z,93.90
2022-12-27T13:26:09.530Z,111.70
2022-12-27T13:27:24.730Z,112.90
2022-12-27T13:28:36.968Z,95.90
2022-12-27T13:30:03.062Z,105.13
2022-12-27T13:31:25.718Z,57.22
2022-12-27T13:32:42.194Z,111.18
2022-12-27T13:33:54.292Z,40.22
2022-12-27T13:35:14.930Z,121.95
2022-12-27T13:36:29.711Z,101.80
2022-12-27T13:37:49.605Z,97.78
2022-12-27T13:39:08.115Z,105.80
2022-12-27T13:40:39.113Z,83.13
2022-12-27T13:41:59.291Z,65.57
2022-12-27T13:43:35.044Z,78.20
2022-12-27T13:44:50.156Z,94.22
2022-12-27T13:46:15.036Z,77.15
2022-12-27T13:47:34.262Z,75.57
2022-12-27T13:48:58.235Z,32.22
2022-12-27T13:50:28.142Z,66.88
2022-12-27T13:51:47.637Z,74.63
2022-12-27T13:53:07.411Z,109.65
2022-12-27T13:54:43.037Z,88.72
2022-12-27T13:55:58.279Z,81.55
2022-12-27T13:57:15.373Z,53.42
2022-12-27T13:58:57.729Z,16.85
2022-12-27T14:00:17.313Z,20.30
2022-12-27T14:01:48.768Z,85.38
2022-12-27T14:03:24.665Z,109.90
2022-12-27T14:04:59.742Z,108.20
2022-12-27T14:06:34.125Z,101.95
2022-12-27T14:08:01.453Z,62.65
2022-12-27T14:09:37.845Z,31.63
2022-12-27T14:10:48.886Z,7.85
2022-12-27T14:12:04.948Z,50.53
2022-12-27T14:13:13.579Z,43.08
2022-12-27T14:14:18.761Z,58.78
2022-12-27T14:15:26.742Z,48.70
2022-12-27T14:16:42.381Z,20.52
2022-12-27T14:17:53.110Z,8.93
2022-12-27T14:19:22.568Z,15.27
2022-12-27T14:20:50.926Z,8.95
2022-12-27T14:22:17.635Z,9.27
2022-12-27T14:23:48.340Z,6.35
2022-12-27T14:25:25.207Z,6.40
2022-12-27T14:27:06.557Z,8.32
2022-12-27T14:28:47.788Z,7.38
2022-12-27T14:30:17.735Z,8.60
2022-12-27T14:31:45.305Z,8.65
2022-12-27T14:33:13.911Z,7.75
2022-12-27T14:34:42.520Z,14.52
2022-12-27T14:36:22.516Z,23.00
2022-12-27T14:38:00.895Z,61.45
2022-12-27T14:39:35.394Z,138.65
2022-12-27T14:41:02.785Z,71.03
2022-12-27T14:43:04.575Z,107.57
2022-12-27T14:44:44.759Z,73.13
2022-12-27T14:46:19.181Z,56.42
2022-12-27T14:47:53.818Z,45.30
2022-12-27T14:49:37.167Z,70.20
2022-12-27T14:51:50.479Z,47.78
2022-12-27T14:53:13.713Z,16.10
2022-12-27T14:54:49.159Z,22.40
2022-12-27T14:56:03.900Z,59.70
2022-12-27T14:57:20.536Z,35.30
2022-12-27T14:58:48.864Z,17.60
2022-12-27T15:00:00.409Z,9.13
2022-12-27T15:02:38.770Z,23.45
2022-12-27T15:04:12.484Z,15.50
2022-12-27T15:05:31.868Z,282.58
2022-12-27T15:07:01.813Z,173.50
2022-12-27T15:08:30.174Z,310.92
2022-12-27T15:09:42.927Z,259.33
2022-12-27T15:10:59.946Z,51.08
2022-12-27T15:12:15.855Z,83.03
2022-12-27T15:13:28.465Z,62.15
2022-12-27T15:14:45.363Z,97.90
2022-12-27T15:15:59.909Z,73.15
2022-12-27T15:17:14.557Z,50.33
2022-12-27T15:18:37.633Z,52.72
2022-12-27T15:20:09.177Z,16.95
2022-12-27T15:21:26.731Z,12.55
2022-12-27T15:22:41.475Z,17.10
2022-12-27T15:23:54.754Z,9.75
2022-12-27T15:25:08.471Z,9.27
2022-12-27T15:26:21.812Z,8.77
2022-12-27T15:27:33.682Z,14.93
2022-12-27T15:28:51.396Z,13.82
2022-12-27T15:30:11.153Z,14.00
2022-12-27T15:31:24.738Z,24.90
2022-12-27T15:32:40.047Z,26.73
2022-12-27T15:33:53.304Z,46.30
2022-12-27T15:35:20.597Z,70.68
2022-12-27T15:36:37.499Z,78.50
2022-12-27T15:38:01.310Z,79.57
2022-12-27T15:39:31.324Z,81.80
2022-12-27T15:40:58.153Z,99.30
2022-12-27T15:42:08.922Z,64.80
2022-12-27T15:43:33.020Z,87.50
2022-12-27T15:44:51.033Z,81.38
2022-12-27T15:46:08.434Z,88.57
2022-12-27T15:47:40.114Z,82.15
2022-12-27T15:49:08.633Z,80.10
2022-12-27T15:50:29.569Z,100.90